createdAt,value
2022-10-31T05:01:06.794Z,1.30
2022-10-31T05:02:06.655Z,1.40
2022-10-31T05:03:07.084Z,1.10
2022-10-31T05:04:06.531Z,1.50
2022-10-31T05:05:07.697Z,1.50
2022-10-31T05:06:06.670Z,1.30
2022-10-31T05:07:06.812Z,1.40
2022-10-31T05:08:06.490Z,1.00
2022-10-31T05:09:06.515Z,1.30
2022-10-31T05:10:06.470Z,1.50
2022-10-31T05:11:06.551Z,1.60
2022-10-31T05:12:06.454Z,1.20
2022-10-31T05:13:06.556Z,1.10
2022-10-31T05:14:13.436Z,1.10
2022-10-31T05:15:06.391Z,1.10
2022-10-31T05:16:06.382Z,1.20
2022-10-31T05:17:06.388Z,1.20
2022-10-31T05:18:06.357Z,1.20
2022-10-31T05:19:06.389Z,1.30
2022-10-31T05:20:06.401Z,1.50
2022-10-31T05:21:06.318Z,1.10
2022-10-31T05:22:06.337Z,1.20
2022-10-31T05:23:06.297Z,1.70
2022-10-31T05:24:06.276Z,1.10
2022-10-31T05:25:06.266Z,1.30
2022-10-31T05:26:06.285Z,1.40
2022-10-31T05:27:06.286Z,1.10
2022-10-31T05:28:06.230Z,0.80
2022-10-31T05:29:06.244Z,1.30
2022-10-31T05:30:06.672Z,1.20
2022-10-31T05:31:06.198Z,1.40
2022-10-31T05:32:06.175Z,2.00
2022-10-31T05:33:06.165Z,1.60
2022-10-31T05:34:06.146Z,2.10
2022-10-31T05:35:06.175Z,1.60
2022-10-31T05:36:06.174Z,2.60
2022-10-31T05:37:06.126Z,2.00
2022-10-31T05:38:06.112Z,2.10
2022-10-31T05:39:06.095Z,1.60
2022-10-31T05:40:08.297Z,1.70
2022-10-31T05:41:06.075Z,1.50
2022-10-31T05:42:06.112Z,1.70
2022-10-31T05:43:06.046Z,1.90
2022-10-31T05:44:06.053Z,1.20
2022-10-31T05:45:06.036Z,1.70
2022-10-31T05:46:06.010Z,1.30
2022-10-31T05:47:06.011Z,1.60
2022-10-31T05:48:06.034Z,1.40
2022-10-31T05:49:05.969Z,1.50
2022-10-31T05:50:06.390Z,1.70
2022-10-31T05:51:05.936Z,1.70
2022-10-31T05:52:05.930Z,1.80
2022-10-31T05:53:05.931Z,1.50
2022-10-31T05:54:05.899Z,1.00
2022-10-31T05:55:05.894Z,1.40
2022-10-31T05:56:05.938Z,1.20
2022-10-31T05:57:05.860Z,1.70
2022-10-31T05:58:05.850Z,1.40
2022-10-31T05:59:05.857Z,1.40
2022-10-31T06:00:05.864Z,1.50
2022-10-31T06:01:05.935Z,1.30
2022-10-31T06:02:06.086Z,1.10
2022-10-31T06:03:05.856Z,1.20
2022-10-31T06:04:05.775Z,0.90
2022-10-31T06:05:05.828Z,1.60
2022-10-31T06:06:05.752Z,1.10
2022-10-31T06:07:05.742Z,1.10
2022-10-31T06:08:06.192Z,1.30
2022-10-31T06:09:06.165Z,1.70
2022-10-31T06:10:05.700Z,1.10
2022-10-31T06:11:05.764Z,1.40
2022-10-31T06:12:05.672Z,1.30
2022-10-31T06:13:05.783Z,1.30
2022-10-31T06:14:05.943Z,1.20
2022-10-31T06:15:05.654Z,1.30
2022-10-31T06:16:05.624Z,0.90
2022-10-31T06:17:05.617Z,1.20
2022-10-31T06:18:05.600Z,1.30
2022-10-31T06:19:05.655Z,1.30
2022-10-31T06:20:05.745Z,1.40
2022-10-31T06:21:05.560Z,1.40
2022-10-31T06:22:05.551Z,1.50
2022-10-31T06:23:05.826Z,1.40
2022-10-31T06:24:05.518Z,1.10
2022-10-31T06:25:05.520Z,1.70
2022-10-31T06:26:05.578Z,0.90
2022-10-31T06:27:05.551Z,1.30
2022-10-31T06:28:05.490Z,1.10
2022-10-31T06:29:05.470Z,1.30
2022-10-31T06:30:05.522Z,1.50
2022-10-31T06:31:05.424Z,1.60
2022-10-31T06:32:05.656Z,1.20
2022-10-31T06:33:05.410Z,1.30
2022-10-31T06:34:05.397Z,1.50
2022-10-31T06:35:05.377Z,1.40
2022-10-31T06:36:05.367Z,1.30
2022-10-31T06:37:05.356Z,1.20
2022-10-31T06:38:05.710Z,1.00
2022-10-31T06:39:05.338Z,1.60
2022-10-31T06:40:05.317Z,1.50
2022-10-31T06:41:05.305Z,1.60
2022-10-31T06:42:05.322Z,1.70
2022-10-31T06:43:05.355Z,2.30
2022-10-31T06:44:08.144Z,2.00
2022-10-31T06:45:05.255Z,1.30
2022-10-31T06:46:05.242Z,2.00
2022-10-31T06:47:05.234Z,1.50
2022-10-31T06:48:17.014Z,1.70
2022-10-31T06:49:06.393Z,1.50
2022-10-31T06:50:05.183Z,1.60
2022-10-31T06:51:05.202Z,1.60
2022-10-31T06:52:05.193Z,1.60
2022-10-31T06:53:05.191Z,1.00
2022-10-31T06:54:05.152Z,1.20
2022-10-31T06:55:05.198Z,1.40
2022-10-31T06:56:05.114Z,1.30
2022-10-31T06:57:05.102Z,1.20
2022-10-31T06:58:05.332Z,1.40
2022-10-31T06:59:05.082Z,1.10
2022-10-31T07:00:05.059Z,0.90
2022-10-31T07:01:05.268Z,1.20
2022-10-31T07:02:05.165Z,1.10
2022-10-31T07:03:05.020Z,1.40
2022-10-31T07:04:05.008Z,1.20
2022-10-31T07:05:04.999Z,1.10
2022-10-31T07:06:04.980Z,1.50
2022-10-31T07:07:05.080Z,1.30
2022-10-31T07:08:04.998Z,1.40
2022-10-31T07:09:04.958Z,1.10
2022-10-31T07:10:05.002Z,1.50
2022-10-31T07:11:04.938Z,1.50
2022-10-31T07:12:04.918Z,1.60
2022-10-31T07:13:04.934Z,1.40
2022-10-31T07:14:04.885Z,1.40
2022-10-31T07:15:04.888Z,1.30
2022-10-31T07:16:04.856Z,1.50
2022-10-31T07:17:04.895Z,1.50
2022-10-31T07:18:04.845Z,1.00
2022-10-31T07:19:04.835Z,1.20
2022-10-31T07:20:04.825Z,1.30
2022-10-31T07:21:04.813Z,1.10
2022-10-31T07:22:04.822Z,1.40
2022-10-31T07:23:05.272Z,1.70
2022-10-31T07:24:04.762Z,1.50
2022-10-31T07:25:04.753Z,1.20
2022-10-31T07:26:04.733Z,1.40
2022-10-31T07:27:04.766Z,1.10
2022-10-31T07:28:04.800Z,1.10
2022-10-31T07:29:04.711Z,1.50
2022-10-31T07:30:04.770Z,1.40
2022-10-31T07:31:04.684Z,1.10
2022-10-31T07:32:04.671Z,1.70
2022-10-31T07:33:04.697Z,2.00
2022-10-31T07:34:04.632Z,1.50
2022-10-31T07:35:04.639Z,1.20
2022-10-31T07:36:04.645Z,1.50
2022-10-31T07:37:04.631Z,1.20
2022-10-31T07:38:04.589Z,1.40
2022-10-31T07:39:04.641Z,1.00
2022-10-31T07:40:04.562Z,1.30
2022-10-31T07:41:04.574Z,1.30
2022-10-31T07:42:04.530Z,1.50
2022-10-31T07:43:04.539Z,1.50
2022-10-31T07:44:04.503Z,1.30
2022-10-31T07:45:04.810Z,1.40
2022-10-31T07:46:04.868Z,1.80
2022-10-31T07:47:04.491Z,1.20
2022-10-31T07:48:04.450Z,1.50
2022-10-31T07:49:04.441Z,1.70
2022-10-31T07:50:04.425Z,1.40
2022-10-31T07:51:04.412Z,1.40
2022-10-31T07:52:04.456Z,1.70
2022-10-31T07:53:04.398Z,1.60
2022-10-31T07:54:04.368Z,1.20
2022-10-31T07:55:04.437Z,1.50
2022-10-31T07:56:04.345Z,1.70
2022-10-31T07:57:04.337Z,1.20
2022-10-31T07:58:04.480Z,1.20
2022-10-31T07:59:04.321Z,2.10
2022-10-31T08:00:04.288Z,1.50
2022-10-31T08:01:04.611Z,1.20
2022-10-31T08:02:04.272Z,1.40
2022-10-31T08:03:04.370Z,1.90
2022-10-31T08:04:04.303Z,1.40
2022-10-31T08:05:04.236Z,1.70
2022-10-31T08:06:04.224Z,1.50
2022-10-31T08:07:04.205Z,2.00
2022-10-31T08:08:04.499Z,1.50
2022-10-31T08:09:04.187Z,1.90
2022-10-31T08:10:04.195Z,1.70
2022-10-31T08:11:04.153Z,1.20
2022-10-31T08:12:04.148Z,1.60
2022-10-31T08:13:04.164Z,1.30
2022-10-31T08:14:04.115Z,2.00
2022-10-31T08:15:04.127Z,1.60
2022-10-31T08:16:04.118Z,1.60
2022-10-31T08:17:04.075Z,2.30
2022-10-31T08:18:04.166Z,1.50
2022-10-31T08:19:04.087Z,1.90
2022-10-31T08:20:04.074Z,2.00
2022-10-31T08:21:04.028Z,2.20
2022-10-31T08:22:04.006Z,1.60
2022-10-31T08:23:04.010Z,2.20
2022-10-31T08:24:04.001Z,1.80
2022-10-31T08:25:04.034Z,1.80
2022-10-31T08:26:03.954Z,1.90
2022-10-31T08:27:04.071Z,1.40
2022-10-31T08:28:04.053Z,1.70
2022-10-31T08:29:03.922Z,1.60
2022-10-31T08:30:03.903Z,1.80
2022-10-31T08:31:03.949Z,1.30
2022-10-31T08:32:03.889Z,1.90
2022-10-31T08:33:03.873Z,1.80
2022-10-31T08:34:03.858Z,1.70
2022-10-31T08:35:03.842Z,2.10
2022-10-31T08:36:03.839Z,1.70
2022-10-31T08:37:03.870Z,2.00
2022-10-31T08:38:04.331Z,1.90
2022-10-31T08:39:03.788Z,1.50
2022-10-31T08:40:03.783Z,1.40
2022-10-31T08:41:03.761Z,1.60
2022-10-31T08:42:03.751Z,2.20
2022-10-31T08:43:03.789Z,2.00
2022-10-31T08:44:03.719Z,2.00
2022-10-31T08:45:03.738Z,1.90
2022-10-31T08:46:03.699Z,1.90
2022-10-31T08:47:03.695Z,1.80
2022-10-31T08:48:04.081Z,1.70
2022-10-31T08:49:03.705Z,1.60
2022-10-31T08:50:03.630Z,1.50
2022-10-31T08:51:03.674Z,1.50
2022-10-31T08:52:03.620Z,1.60
2022-10-31T08:53:05.635Z,1.70
2022-10-31T08:54:03.621Z,1.90
2022-10-31T08:55:03.614Z,2.20
2022-10-31T08:56:03.568Z,1.60
2022-10-31T08:57:03.546Z,1.80
2022-10-31T08:58:03.746Z,1.60
2022-10-31T08:59:03.544Z,2.00
2022-10-31T09:00:03.509Z,1.80
2022-10-31T09:01:03.634Z,1.70
2022-10-31T09:02:03.590Z,1.80
2022-10-31T09:03:03.462Z,1.70
2022-10-31T09:04:03.640Z,1.70
2022-10-31T09:05:03.437Z,1.80
2022-10-31T09:06:03.563Z,1.80
2022-10-31T09:07:21.272Z,1.80
2022-10-31T09:08:04.736Z,1.70
2022-10-31T09:09:03.384Z,1.90
2022-10-31T09:10:03.682Z,1.70
2022-10-31T09:11:03.372Z,1.90
2022-10-31T09:12:03.351Z,1.40
2022-10-31T09:13:03.342Z,1.60
2022-10-31T09:14:03.312Z,1.50
2022-10-31T09:15:03.340Z,1.20
2022-10-31T09:16:03.372Z,1.40
2022-10-31T09:17:03.304Z,1.20
2022-10-31T09:18:03.678Z,1.70
2022-10-31T09:19:06.239Z,1.10
2022-10-31T09:20:04.338Z,1.30
2022-10-31T09:21:03.430Z,1.40
2022-10-31T09:22:03.212Z,1.50
2022-10-31T09:23:03.201Z,1.40
2022-10-31T09:24:03.201Z,1.20
2022-10-31T09:25:03.181Z,1.20
2022-10-31T09:26:03.189Z,1.20
2022-10-31T09:27:03.192Z,1.60
2022-10-31T09:28:03.656Z,1.50
2022-10-31T09:29:03.188Z,1.30
2022-10-31T09:30:03.113Z,1.40
2022-10-31T09:31:03.139Z,1.30
2022-10-31T09:32:03.089Z,1.50
2022-10-31T09:33:03.079Z,1.40
2022-10-31T09:34:03.058Z,1.30
2022-10-31T09:35:03.158Z,1.50
2022-10-31T09:36:03.028Z,1.60
2022-10-31T09:37:03.039Z,1.30
2022-10-31T09:38:03.370Z,1.30
2022-10-31T09:39:03.002Z,1.40
2022-10-31T09:40:02.988Z,1.10
2022-10-31T09:41:03.006Z,1.30
2022-10-31T09:42:02.947Z,1.30
2022-10-31T09:43:02.947Z,1.70
2022-10-31T09:44:02.926Z,1.60
2022-10-31T09:45:02.921Z,1.10
2022-10-31T09:46:02.996Z,1.30
2022-10-31T09:47:02.896Z,1.30
2022-10-31T09:48:03.253Z,1.50
2022-10-31T09:49:02.865Z,1.20
2022-10-31T09:50:02.863Z,1.50
2022-10-31T09:51:02.844Z,1.40
2022-10-31T09:52:02.956Z,1.50
2022-10-31T09:53:03.214Z,1.60
2022-10-31T09:54:02.817Z,1.40
2022-10-31T09:55:02.799Z,1.30
2022-10-31T09:56:02.776Z,1.90
2022-10-31T09:57:02.774Z,1.40
2022-10-31T09:58:02.801Z,1.30
2022-10-31T09:59:02.762Z,1.40
2022-10-31T10:00:02.735Z,1.60
2022-10-31T10:01:02.752Z,1.20
2022-10-31T10:02:02.834Z,1.20
2022-10-31T10:03:02.987Z,1.20
2022-10-31T10:04:02.699Z,1.30
2022-10-31T10:05:02.704Z,1.20
2022-10-31T10:06:02.645Z,1.30
2022-10-31T10:07:02.634Z,1.40
2022-10-31T10:08:02.686Z,1.60
2022-10-31T10:09:02.607Z,1.50
2022-10-31T10:10:02.665Z,1.50
2022-10-31T10:11:02.583Z,1.40
2022-10-31T10:12:02.577Z,1.40
2022-10-31T10:13:04.987Z,1.40
2022-10-31T10:14:03.544Z,1.30
2022-10-31T10:15:02.526Z,1.30
2022-10-31T10:16:02.572Z,1.40
2022-10-31T10:17:02.502Z,1.30
2022-10-31T10:18:02.535Z,1.40
2022-10-31T10:19:02.491Z,1.50
2022-10-31T10:20:02.471Z,1.50
2022-10-31T10:21:02.441Z,1.30
2022-10-31T10:22:02.470Z,1.50
2022-10-31T10:23:02.773Z,1.20
2022-10-31T10:24:02.412Z,1.30
2022-10-31T10:25:02.443Z,1.30
2022-10-31T10:26:03.466Z,1.40
2022-10-31T10:27:02.370Z,1.00
2022-10-31T10:28:02.597Z,1.60
2022-10-31T10:29:02.362Z,1.20
2022-10-31T10:30:02.349Z,1.30
2022-10-31T10:31:02.424Z,1.20
2022-10-31T10:32:02.313Z,1.30
2022-10-31T10:33:02.301Z,1.20
2022-10-31T10:34:02.283Z,1.10
2022-10-31T10:35:02.271Z,1.50
2022-10-31T10:36:02.259Z,1.30
2022-10-31T10:37:02.268Z,1.40
2022-10-31T10:38:02.498Z,1.00
2022-10-31T10:39:02.211Z,1.30
2022-10-31T10:40:02.376Z,1.40
2022-10-31T10:41:02.188Z,1.30
2022-10-31T10:42:02.187Z,1.40
2022-10-31T10:43:02.168Z,1.20
2022-10-31T10:44:02.171Z,1.20
2022-10-31T10:45:02.150Z,1.20
2022-10-31T10:46:03.614Z,1.10
2022-10-31T10:47:02.160Z,1.50
2022-10-31T10:48:02.494Z,1.30
2022-10-31T10:49:02.126Z,1.20
2022-10-31T10:50:02.079Z,1.50
2022-10-31T10:51:02.062Z,1.00
2022-10-31T10:52:19.349Z,1.60
2022-10-31T10:53:03.055Z,1.80
2022-10-31T10:54:05.220Z,1.80
2022-10-31T10:55:03.009Z,1.70
2022-10-31T10:56:02.068Z,1.30
2022-10-31T10:57:01.985Z,1.20
2022-10-31T10:58:02.331Z,1.30
2022-10-31T10:59:01.958Z,1.20
2022-10-31T11:00:01.953Z,1.30
2022-10-31T11:01:02.010Z,1.60
2022-10-31T11:02:01.969Z,1.30
2022-10-31T11:03:02.244Z,1.40
2022-10-31T11:04:01.918Z,1.50
2022-10-31T11:05:01.886Z,1.40
2022-10-31T11:06:02.061Z,1.30
2022-10-31T11:07:01.887Z,1.50
2022-10-31T11:08:01.887Z,1.50
2022-10-31T11:09:01.836Z,1.30
2022-10-31T11:10:01.818Z,1.70
2022-10-31T11:11:01.806Z,1.20
2022-10-31T11:12:01.930Z,1.60
2022-10-31T11:13:02.052Z,1.20
2022-10-31T11:14:01.764Z,1.30
2022-10-31T11:16:10.971Z,1.30
2022-10-31T11:17:11.219Z,1.20
2022-10-31T11:18:10.983Z,1.40
2022-10-31T11:19:10.917Z,1.90
2022-10-31T11:20:14.780Z,1.80
2022-10-31T11:21:11.912Z,1.80
2022-10-31T11:22:10.890Z,1.60
2022-10-31T11:23:11.653Z,1.60
2022-10-31T11:24:11.002Z,1.50
2022-10-31T11:25:10.851Z,1.50
2022-10-31T11:26:10.831Z,1.40
2022-10-31T11:27:10.868Z,1.80
2022-10-31T11:28:10.809Z,1.30
2022-10-31T11:29:10.855Z,1.80
2022-10-31T11:30:10.898Z,1.60
2022-10-31T11:31:10.841Z,1.50
2022-10-31T11:32:10.759Z,1.30
2022-10-31T11:33:10.825Z,1.50
2022-10-31T11:34:10.734Z,1.40
2022-10-31T11:35:10.762Z,1.20
2022-10-31T11:36:10.948Z,1.30
2022-10-31T11:37:11.589Z,1.30
2022-10-31T11:38:10.670Z,1.50
2022-10-31T11:39:10.711Z,1.20
2022-10-31T11:40:10.649Z,1.30
2022-10-31T11:41:10.633Z,1.40
2022-10-31T11:42:10.698Z,1.20
2022-10-31T11:43:10.836Z,1.30
2022-10-31T11:44:10.602Z,1.60
2022-10-31T11:45:10.599Z,1.20
2022-10-31T11:46:10.591Z,1.20
2022-10-31T11:47:10.559Z,1.30
2022-10-31T11:48:10.593Z,1.60
2022-10-31T11:49:10.548Z,1.40
2022-10-31T11:50:10.521Z,1.40
2022-10-31T11:51:10.715Z,1.80
2022-10-31T11:52:10.500Z,1.60
2022-10-31T11:53:10.500Z,1.40
2022-10-31T11:54:10.469Z,1.70
2022-10-31T11:55:10.457Z,1.40
2022-10-31T11:56:10.438Z,1.50
2022-10-31T11:57:10.519Z,1.40
2022-10-31T11:58:10.407Z,1.20
2022-10-31T11:59:10.416Z,1.30
2022-10-31T12:00:10.387Z,1.70
2022-10-31T12:01:10.442Z,1.20
2022-10-31T12:02:10.461Z,1.30
2022-10-31T12:03:10.389Z,1.40
2022-10-31T12:04:10.345Z,1.40
2022-10-31T12:05:10.346Z,1.20
2022-10-31T12:06:10.346Z,1.50
2022-10-31T12:07:10.299Z,2.00
2022-10-31T12:08:10.286Z,1.40
2022-10-31T12:09:10.309Z,1.60
2022-10-31T12:10:10.265Z,1.40
2022-10-31T12:11:10.266Z,1.30
2022-10-31T12:12:10.285Z,1.60
2022-10-31T12:13:10.249Z,1.60
2022-10-31T12:14:10.228Z,1.20
2022-10-31T12:15:10.226Z,1.40
2022-10-31T12:16:10.185Z,1.70
2022-10-31T12:17:10.175Z,1.50
2022-10-31T12:18:10.220Z,1.50
2022-10-31T12:19:10.142Z,1.20
2022-10-31T12:20:10.206Z,1.40
2022-10-31T12:21:10.139Z,1.40
2022-10-31T12:22:10.122Z,1.50
2022-10-31T12:23:10.100Z,1.60
2022-10-31T12:24:10.176Z,1.40
2022-10-31T12:25:10.078Z,1.90
2022-10-31T12:26:10.054Z,1.30
2022-10-31T12:27:10.044Z,1.50
2022-10-31T12:28:10.041Z,1.20
2022-10-31T12:29:10.203Z,1.70
2022-10-31T12:30:10.202Z,1.10
2022-10-31T12:31:10.070Z,1.50
2022-10-31T12:32:09.974Z,1.50
2022-10-31T12:33:10.031Z,1.50
2022-10-31T12:34:09.945Z,1.10
2022-10-31T12:35:09.988Z,1.30
2022-10-31T12:36:14.275Z,1.20
2022-10-31T12:37:10.916Z,1.30
2022-10-31T12:38:09.915Z,1.70
2022-10-31T12:39:09.904Z,1.30
2022-10-31T12:40:09.865Z,1.90
2022-10-31T12:41:09.931Z,1.50
2022-10-31T12:42:09.903Z,1.70
2022-10-31T12:43:09.835Z,1.30
2022-10-31T12:44:09.863Z,1.10
2022-10-31T12:45:09.804Z,1.50
2022-10-31T12:46:09.809Z,1.60
2022-10-31T12:47:09.822Z,1.50
2022-10-31T12:48:09.841Z,1.50
2022-10-31T12:49:09.777Z,1.90
2022-10-31T12:50:09.769Z,1.30
2022-10-31T12:51:09.723Z,1.60
2022-10-31T12:52:09.744Z,1.80
2022-10-31T12:53:09.732Z,1.40
2022-10-31T12:54:09.802Z,1.50
2022-10-31T12:55:09.696Z,1.90
2022-10-31T12:56:09.694Z,1.50
2022-10-31T12:57:09.661Z,1.80
2022-10-31T12:58:09.660Z,1.50
2022-10-31T12:59:09.632Z,1.90
2022-10-31T13:00:11.365Z,1.60
2022-10-31T13:01:09.743Z,1.90
2022-10-31T13:02:09.884Z,1.70
2022-10-31T13:03:09.574Z,1.60
2022-10-31T13:04:09.570Z,1.80
2022-10-31T13:05:09.561Z,1.70
2022-10-31T13:06:09.551Z,1.70
2022-10-31T13:07:09.521Z,1.50
2022-10-31T13:08:09.641Z,1.40
2022-10-31T13:09:09.501Z,1.50
2022-10-31T13:10:09.502Z,1.40
2022-10-31T13:11:09.495Z,1.30
2022-10-31T13:12:09.462Z,1.40
2022-10-31T13:13:09.481Z,1.40
2022-10-31T13:14:09.541Z,1.60
2022-10-31T13:15:09.442Z,1.60
2022-10-31T13:16:09.421Z,1.40
2022-10-31T13:17:09.453Z,1.40
2022-10-31T13:18:09.403Z,1.30
2022-10-31T13:19:09.369Z,1.40
2022-10-31T13:20:09.442Z,1.50
2022-10-31T13:21:09.340Z,1.10
2022-10-31T13:22:09.343Z,1.40
2022-10-31T13:23:23.297Z,1.60
2022-10-31T13:24:10.320Z,1.50
2022-10-31T13:25:09.367Z,1.40
2022-10-31T13:26:09.280Z,1.60
2022-10-31T13:27:09.300Z,1.40
2022-10-31T13:28:09.260Z,1.40
2022-10-31T13:29:09.276Z,1.70
2022-10-31T13:30:09.229Z,1.40
2022-10-31T13:31:09.261Z,1.40
2022-10-31T13:32:09.220Z,1.20
2022-10-31T13:33:09.194Z,1.20
2022-10-31T13:34:09.178Z,1.40
2022-10-31T13:35:09.170Z,1.10
2022-10-31T13:36:09.148Z,1.10
2022-10-31T13:37:09.196Z,1.20
2022-10-31T13:38:09.130Z,1.60
2022-10-31T13:39:09.108Z,1.50
2022-10-31T13:40:09.110Z,1.30
2022-10-31T13:41:09.088Z,1.30
2022-10-31T13:42:09.081Z,1.60
2022-10-31T13:43:09.158Z,1.20
2022-10-31T13:44:09.075Z,1.20
2022-10-31T13:45:09.067Z,1.50
2022-10-31T13:46:09.038Z,1.30
2022-10-31T13:47:09.009Z,1.60
2022-10-31T13:48:09.037Z,1.60
2022-10-31T13:49:08.987Z,1.40
2022-10-31T13:50:09.095Z,1.50
2022-10-31T13:51:08.966Z,1.60
2022-10-31T13:52:09.039Z,1.60
2022-10-31T13:53:08.937Z,1.50
2022-10-31T13:54:08.928Z,1.60
2022-10-31T13:55:08.908Z,1.40
2022-10-31T13:56:09.240Z,1.60
2022-10-31T13:57:08.877Z,1.30
2022-10-31T13:58:08.868Z,1.50
2022-10-31T13:59:08.855Z,1.60
2022-10-31T14:00:08.854Z,1.60
2022-10-31T14:01:09.011Z,1.50
2022-10-31T14:02:09.018Z,1.50
2022-10-31T14:03:08.900Z,1.30
2022-10-31T14:04:13.993Z,1.50
2022-10-31T14:05:12.684Z,1.60
2022-10-31T14:06:08.777Z,1.60
2022-10-31T14:07:08.813Z,1.60
2022-10-31T14:08:08.825Z,1.60
2022-10-31T14:09:08.732Z,1.30
2022-10-31T14:10:08.756Z,1.60
2022-10-31T14:11:08.764Z,1.50
2022-10-31T14:12:08.684Z,1.60
2022-10-31T14:13:08.697Z,1.50
2022-10-31T14:14:08.656Z,1.70
2022-10-31T14:15:08.685Z,1.40
2022-10-31T14:16:08.659Z,1.60
2022-10-31T14:17:08.686Z,1.60
2022-10-31T14:18:08.619Z,1.60
2022-10-31T14:19:08.663Z,1.70
2022-10-31T14:20:08.612Z,1.50
2022-10-31T14:21:08.649Z,2.00
2022-10-31T14:22:08.585Z,1.60
2022-10-31T14:23:08.634Z,1.50
2022-10-31T14:24:08.538Z,1.50
2022-10-31T14:25:08.747Z,1.60
2022-10-31T14:26:08.522Z,1.50
2022-10-31T14:27:08.532Z,1.40
2022-10-31T14:28:08.534Z,1.20
2022-10-31T14:29:08.484Z,1.40
2022-10-31T14:30:08.498Z,1.50
2022-10-31T14:31:08.508Z,1.10
2022-10-31T14:32:08.424Z,1.20
2022-10-31T14:33:08.453Z,1.30
2022-10-31T14:34:08.420Z,1.20
2022-10-31T14:35:08.405Z,1.30
2022-10-31T14:36:08.383Z,1.30
2022-10-31T14:37:08.393Z,1.40
2022-10-31T14:38:08.344Z,1.10
2022-10-31T14:39:08.379Z,1.20
2022-10-31T14:40:08.384Z,1.40
2022-10-31T14:41:08.351Z,1.30
2022-10-31T14:42:08.309Z,1.20
2022-10-31T14:43:08.529Z,1.20
2022-10-31T14:44:08.283Z,1.30
2022-10-31T14:45:08.273Z,1.20
2022-10-31T14:46:08.253Z,1.10
2022-10-31T14:47:08.239Z,1.30
2022-10-31T14:48:08.324Z,1.10
2022-10-31T14:49:08.354Z,1.60
2022-10-31T14:50:08.221Z,1.10
2022-10-31T14:51:08.216Z,1.20
2022-10-31T14:52:08.170Z,1.10
2022-10-31T14:53:08.180Z,1.20
2022-10-31T14:54:08.158Z,1.10
2022-10-31T14:55:08.194Z,1.40
2022-10-31T14:56:08.182Z,1.40
2022-10-31T14:57:08.113Z,1.40
2022-10-31T14:58:08.091Z,1.00
2022-10-31T14:59:08.289Z,1.50
2022-10-31T15:00:08.145Z,1.60
2022-10-31T15:01:08.218Z,1.40
2022-10-31T15:02:08.135Z,1.40
2022-10-31T15:03:08.061Z,1.40
2022-10-31T15:04:23.013Z,1.50
2022-10-31T15:05:09.050Z,1.50
2022-10-31T15:06:08.027Z,1.40
2022-10-31T15:07:07.980Z,1.30
2022-10-31T15:08:07.971Z,1.50
2022-10-31T15:09:07.958Z,1.20
2022-10-31T15:10:08.086Z,1.40
2022-10-31T15:11:08.058Z,1.20
2022-10-31T15:12:07.909Z,1.20
2022-10-31T15:13:07.906Z,1.60
2022-10-31T15:14:07.913Z,1.40
2022-10-31T15:15:08.128Z,1.70
2022-10-31T15:16:07.903Z,1.90
2022-10-31T15:17:07.999Z,1.90
2022-10-31T15:18:07.850Z,1.90
2022-10-31T15:19:07.827Z,2.20
2022-10-31T15:20:08.098Z,2.10
2022-10-31T15:21:09.996Z,1.40
2022-10-31T15:22:07.826Z,1.50
2022-10-31T15:23:07.797Z,1.70
2022-10-31T15:24:07.797Z,1.60
2022-10-31T15:25:07.785Z,1.80
2022-10-31T15:26:07.830Z,1.50
2022-10-31T15:27:07.718Z,1.70
2022-10-31T15:28:07.697Z,1.60
2022-10-31T15:29:07.697Z,1.50
2022-10-31T15:30:07.692Z,1.40
2022-10-31T15:31:07.675Z,1.30
2022-10-31T15:32:07.737Z,1.50
2022-10-31T15:33:07.656Z,1.20
2022-10-31T15:34:07.707Z,1.60
2022-10-31T15:35:07.622Z,1.50
2022-10-31T15:36:07.716Z,1.30
2022-10-31T15:37:07.607Z,1.40
2022-10-31T15:38:07.671Z,1.50
2022-10-31T15:39:07.570Z,1.30
2022-10-31T15:40:07.597Z,1.60
2022-10-31T15:41:07.536Z,1.20
2022-10-31T15:42:07.546Z,1.60
2022-10-31T15:43:07.514Z,1.30
2022-10-31T15:44:07.548Z,1.50
2022-10-31T15:45:07.631Z,1.50
2022-10-31T15:46:07.477Z,1.50
2022-10-31T15:47:07.468Z,1.20
2022-10-31T15:48:07.502Z,1.30
2022-10-31T15:49:07.435Z,1.10
2022-10-31T15:50:07.438Z,1.50
2022-10-31T15:51:07.484Z,1.40
2022-10-31T15:52:07.398Z,1.40
2022-10-31T15:53:07.498Z,1.40
2022-10-31T15:54:07.366Z,1.40
2022-10-31T15:55:07.364Z,1.80
2022-10-31T15:56:07.441Z,1.20
2022-10-31T15:57:07.474Z,1.60
2022-10-31T15:58:07.357Z,1.30
2022-10-31T15:59:07.316Z,1.50
2022-10-31T16:00:07.439Z,1.20
2022-10-31T16:01:07.520Z,1.50
2022-10-31T16:02:07.358Z,1.30
2022-10-31T16:03:07.335Z,1.40
2022-10-31T16:04:07.233Z,1.30
2022-10-31T16:05:07.243Z,1.20
2022-10-31T16:06:07.216Z,1.30
2022-10-31T16:07:07.203Z,1.30
2022-10-31T16:08:07.257Z,1.40
2022-10-31T16:09:11.412Z,1.40
2022-10-31T16:10:07.237Z,1.50
2022-10-31T16:11:07.163Z,1.40
2022-10-31T16:12:07.144Z,1.20
2022-10-31T16:13:07.130Z,1.50
2022-10-31T16:14:07.133Z,1.50
2022-10-31T16:15:08.314Z,1.60
2022-10-31T16:16:33.464Z,1.30
2022-10-31T16:17:08.110Z,1.10
2022-10-31T16:18:07.060Z,1.70
2022-10-31T16:19:07.220Z,1.70
2022-10-31T16:20:07.032Z,1.80
2022-10-31T16:21:07.264Z,1.40
2022-10-31T16:22:07.006Z,1.40
2022-10-31T16:23:07.061Z,1.60
2022-10-31T16:24:06.997Z,1.40
2022-10-31T16:25:06.991Z,1.30
2022-10-31T16:26:06.957Z,1.60
2022-10-31T16:27:06.994Z,1.50
2022-10-31T16:28:07.108Z,1.50
2022-10-31T16:29:06.931Z,1.30
2022-10-31T16:30:06.935Z,1.30
2022-10-31T16:31:06.883Z,1.50
2022-10-31T16:32:06.873Z,2.20
2022-10-31T16:33:06.900Z,2.40
2022-10-31T16:34:06.850Z,2.70
2022-10-31T16:35:06.828Z,2.10
2022-10-31T16:36:29.915Z,2.50
2022-10-31T16:37:07.819Z,2.30
2022-10-31T16:38:06.778Z,2.20
2022-10-31T16:39:07.217Z,1.80
2022-10-31T16:40:06.748Z,1.40
2022-10-31T16:41:06.751Z,1.70
2022-10-31T16:42:06.809Z,1.40
2022-10-31T16:43:06.738Z,1.40
2022-10-31T16:44:06.709Z,1.40
2022-10-31T16:45:07.068Z,1.50
2022-10-31T16:46:06.712Z,1.50
2022-10-31T16:47:06.675Z,1.40
2022-10-31T16:48:06.663Z,1.20
2022-10-31T16:49:06.637Z,1.30
2022-10-31T16:50:06.670Z,1.40
2022-10-31T16:51:06.679Z,1.70
2022-10-31T16:52:06.610Z,1.20
2022-10-31T16:53:14.735Z,1.70
2022-10-31T16:54:07.597Z,1.60
2022-10-31T16:55:06.607Z,1.70
2022-10-31T16:56:06.546Z,1.40
2022-10-31T16:57:06.605Z,1.60
2022-10-31T16:58:06.538Z,1.60
2022-10-31T16:59:06.536Z,1.70
2022-10-31T17:00:06.505Z,1.60
2022-10-31T17:01:06.658Z,1.60
2022-10-31T17:02:06.586Z,1.90
2022-10-31T17:03:06.516Z,1.80
2022-10-31T17:04:06.452Z,1.70
2022-10-31T17:05:06.504Z,2.10
2022-10-31T17:06:06.424Z,1.70
2022-10-31T17:07:06.413Z,2.00
2022-10-31T17:08:06.387Z,1.90
2022-10-31T17:09:06.644Z,2.70
2022-10-31T17:10:06.393Z,2.20
2022-10-31T17:11:06.351Z,2.60
2022-10-31T17:12:06.385Z,2.60
2022-10-31T17:13:06.337Z,2.50
2022-10-31T17:14:06.430Z,2.60
2022-10-31T17:15:07.193Z,2.40
2022-10-31T17:16:06.302Z,2.60
2022-10-31T17:17:06.318Z,2.50
2022-10-31T17:18:06.319Z,2.90
2022-10-31T17:19:06.255Z,2.40
2022-10-31T17:20:06.230Z,2.40
2022-10-31T17:21:06.446Z,2.40
2022-10-31T17:22:06.280Z,2.30
2022-10-31T17:23:06.207Z,2.40
2022-10-31T17:24:06.183Z,2.30
2022-10-31T17:25:06.179Z,2.40
2022-10-31T17:26:06.153Z,2.60
2022-10-31T17:27:06.194Z,2.20
2022-10-31T17:28:06.128Z,1.90
2022-10-31T17:29:06.125Z,2.30
2022-10-31T17:30:06.159Z,2.20
2022-10-31T17:31:06.089Z,2.30
2022-10-31T17:32:06.100Z,2.20
2022-10-31T17:33:06.072Z,2.20
2022-10-31T17:34:06.058Z,2.10
2022-10-31T17:35:06.208Z,1.90
2022-10-31T17:36:06.055Z,1.80
2022-10-31T17:37:06.057Z,2.20
2022-10-31T17:38:05.995Z,2.30
2022-10-31T17:39:06.008Z,2.00
2022-10-31T17:40:06.035Z,1.90
2022-10-31T17:41:10.005Z,2.00
2022-10-31T17:42:07.027Z,2.20
2022-10-31T17:43:06.065Z,2.20
2022-10-31T17:44:05.934Z,2.00
2022-10-31T17:45:05.930Z,2.20
2022-10-31T17:46:05.898Z,2.40
2022-10-31T17:47:05.894Z,2.80
2022-10-31T17:48:05.905Z,2.60
2022-10-31T17:49:05.970Z,2.00
2022-10-31T17:50:05.846Z,2.30
2022-10-31T17:51:05.849Z,2.20
2022-10-31T17:52:05.860Z,2.80
2022-10-31T17:53:05.817Z,2.70
2022-10-31T17:54:05.807Z,2.30
2022-10-31T17:55:05.861Z,2.10
2022-10-31T17:56:05.832Z,2.50
2022-10-31T17:57:05.765Z,2.70
2022-10-31T17:58:05.825Z,2.30
2022-10-31T18:00:05.774Z,2.30
2022-10-31T18:01:05.889Z,2.50
2022-10-31T18:02:06.011Z,2.20
2022-10-31T18:03:05.835Z,2.20
2022-10-31T18:04:05.697Z,2.10
2022-10-31T18:05:05.709Z,1.70
2022-10-31T18:06:05.659Z,2.80
2022-10-31T18:07:05.868Z,2.60
2022-10-31T18:08:05.628Z,3.00
2022-10-31T18:09:05.705Z,3.00
2022-10-31T18:10:05.654Z,3.40
2022-10-31T18:11:05.608Z,3.50
2022-10-31T18:12:05.584Z,3.70
2022-10-31T18:13:05.733Z,3.00
2022-10-31T18:14:05.554Z,3.20
2022-10-31T18:15:05.532Z,4.30
2022-10-31T18:16:05.528Z,3.10
2022-10-31T18:17:05.515Z,3.70
2022-10-31T18:18:05.538Z,3.60
2022-10-31T18:19:05.535Z,3.50
2022-10-31T18:20:05.558Z,3.20
2022-10-31T18:21:05.466Z,3.00